sensor_id;sensor_type;location;lat;lon;timestamp;temperature;humidity
22469;DHT22;11401;50.792;4.352;2023-07-29T00:01:58;23.10;70.10
22469;DHT22;11401;50.792;4.352;2023-07-29T00:04:26;23.10;69.80
22469;DHT22;11401;50.792;4.352;2023-07-29T00:06:53;23.10;69.70
22469;DHT22;11401;50.792;4.352;2023-07-29T00:09:20;23.10;69.40
22469;DHT22;11401;50.792;4.352;2023-07-29T00:11:47;23.00;69.10
22469;DHT22;11401;50.792;4.352;2023-07-29T00:14:14;23.00;69.00
22469;DHT22;11401;50.792;4.352;2023-07-29T00:16:41;23.00;68.90
22469;DHT22;11401;50.792;4.352;2023-07-29T00:19:09;23.00;68.90
22469;DHT22;11401;50.792;4.352;2023-07-29T00:21:36;23.00;68.80
22469;DHT22;11401;50.792;4.352;2023-07-29T00:24:04;23.00;68.70
22469;DHT22;11401;50.792;4.352;2023-07-29T00:26:31;22.90;68.40
22469;DHT22;11401;50.792;4.352;2023-07-29T00:28:59;22.90;68.40
22469;DHT22;11401;50.792;4.352;2023-07-29T00:31:27;22.90;68.50
22469;DHT22;11401;50.792;4.352;2023-07-29T00:33:54;22.90;68.30
22469;DHT22;11401;50.792;4.352;2023-07-29T00:36:22;22.90;68.30
22469;DHT22;11401;50.792;4.352;2023-07-29T00:38:50;22.90;68.40
22469;DHT22;11401;50.792;4.352;2023-07-29T00:41:17;22.80;68.40
22469;DHT22;11401;50.792;4.352;2023-07-29T00:43:45;22.80;68.30
22469;DHT22;11401;50.792;4.352;2023-07-29T00:46:12;22.80;68.40
22469;DHT22;11401;50.792;4.352;2023-07-29T00:48:39;22.90;68.30
22469;DHT22;11401;50.792;4.352;2023-07-29T00:51:07;22.80;68.10
22469;DHT22;11401;50.792;4.352;2023-07-29T00:53:34;22.80;67.90
22469;DHT22;11401;50.792;4.352;2023-07-29T00:56:01;22.80;68.10
22469;DHT22;11401;50.792;4.352;2023-07-29T00:58:28;22.80;68.30
22469;DHT22;11401;50.792;4.352;2023-07-29T01:00:56;22.80;68.10
22469;DHT22;11401;50.792;4.352;2023-07-29T01:03:23;22.80;68.10
22469;DHT22;11401;50.792;4.352;2023-07-29T01:06:12;22.80;68.10
22469;DHT22;11401;50.792;4.352;2023-07-29T01:08:58;22.80;68.10
22469;DHT22;11401;50.792;4.352;2023-07-29T01:16:41;22.60;68.40
22469;DHT22;11401;50.792;4.352;2023-07-29T01:19:22;22.60;69.20
22469;DHT22;11401;50.792;4.352;2023-07-29T01:21:55;22.60;68.50
22469;DHT22;11401;50.792;4.352;2023-07-29T01:24:22;22.60;68.80
22469;DHT22;11401;50.792;4.352;2023-07-29T01:26:49;22.60;68.60
22469;DHT22;11401;50.792;4.352;2023-07-29T01:29:16;22.60;68.70
22469;DHT22;11401;50.792;4.352;2023-07-29T01:31:44;22.60;68.70
22469;DHT22;11401;50.792;4.352;2023-07-29T01:34:23;22.50;68.70
22469;DHT22;11401;50.792;4.352;2023-07-29T01:36:52;22.60;68.70
22469;DHT22;11401;50.792;4.352;2023-07-29T01:39:21;22.50;68.50
22469;DHT22;11401;50.792;4.352;2023-07-29T01:41:50;22.50;68.70
22469;DHT22;11401;50.792;4.352;2023-07-29T01:44:18;22.50;68.60
22469;DHT22;11401;50.792;4.352;2023-07-29T01:46:47;22.50;68.50
22469;DHT22;11401;50.792;4.352;2023-07-29T01:49:14;22.50;68.60
22469;DHT22;11401;50.792;4.352;2023-07-29T01:51:41;22.50;68.70
22469;DHT22;11401;50.792;4.352;2023-07-29T01:54:08;22.50;68.60
22469;DHT22;11401;50.792;4.352;2023-07-29T01:56:35;22.50;68.40
22469;DHT22;11401;50.792;4.352;2023-07-29T01:59:04;22.50;68.50
22469;DHT22;11401;50.792;4.352;2023-07-29T02:01:32;22.50;68.40
22469;DHT22;11401;50.792;4.352;2023-07-29T02:03:59;22.50;68.40
22469;DHT22;11401;50.792;4.352;2023-07-29T02:06:26;22.40;68.50
22469;DHT22;11401;50.792;4.352;2023-07-29T02:08:56;22.40;68.60
22469;DHT22;11401;50.792;4.352;2023-07-29T02:11:23;22.40;68.40
22469;DHT22;11401;50.792;4.352;2023-07-29T02:13:55;22.40;68.50
22469;DHT22;11401;50.792;4.352;2023-07-29T02:16:22;22.40;68.80
22469;DHT22;11401;50.792;4.352;2023-07-29T02:18:51;22.40;68.80
22469;DHT22;11401;50.792;4.352;2023-07-29T02:21:22;22.40;68.50
22469;DHT22;11401;50.792;4.352;2023-07-29T02:23:49;22.40;68.70
22469;DHT22;11401;50.792;4.352;2023-07-29T02:26:17;22.40;68.50
22469;DHT22;11401;50.792;4.352;2023-07-29T02:28:44;22.40;68.30
22469;DHT22;11401;50.792;4.352;2023-07-29T02:31:17;22.40;68.50
22469;DHT22;11401;50.792;4.352;2023-07-29T02:33:45;22.40;68.40
22469;DHT22;11401;50.792;4.352;2023-07-29T02:36:13;22.40;68.60
22469;DHT22;11401;50.792;4.352;2023-07-29T02:38:41;22.40;68.80
22469;DHT22;11401;50.792;4.352;2023-07-29T02:41:10;22.50;68.50
22469;DHT22;11401;50.792;4.352;2023-07-29T02:43:39;22.40;68.50
22469;DHT22;11401;50.792;4.352;2023-07-29T02:46:08;22.40;68.50
22469;DHT22;11401;50.792;4.352;2023-07-29T02:48:35;22.40;68.40
22469;DHT22;11401;50.792;4.352;2023-07-29T02:51:02;22.30;68.60
22469;DHT22;11401;50.792;4.352;2023-07-29T02:53:29;22.30;68.60
22469;DHT22;11401;50.792;4.352;2023-07-29T02:55:56;22.40;68.60
22469;DHT22;11401;50.792;4.352;2023-07-29T02:58:23;22.40;68.40
22469;DHT22;11401;50.792;4.352;2023-07-29T03:00:53;22.40;68.40
22469;DHT22;11401;50.792;4.352;2023-07-29T03:03:20;22.30;68.00
22469;DHT22;11401;50.792;4.352;2023-07-29T03:05:47;22.30;68.20
22469;DHT22;11401;50.792;4.352;2023-07-29T03:08:15;22.30;68.40
22469;DHT22;11401;50.792;4.352;2023-07-29T03:10:42;22.30;68.50
22469;DHT22;11401;50.792;4.352;2023-07-29T03:13:09;22.30;68.00
22469;DHT22;11401;50.792;4.352;2023-07-29T03:15:36;22.30;68.10
22469;DHT22;11401;50.792;4.352;2023-07-29T03:18:04;22.20;67.90
22469;DHT22;11401;50.792;4.352;2023-07-29T03:20:31;22.20;68.10
22469;DHT22;11401;50.792;4.352;2023-07-29T03:22:58;22.20;67.80
22469;DHT22;11401;50.792;4.352;2023-07-29T03:25:26;22.20;67.60
22469;DHT22;11401;50.792;4.352;2023-07-29T03:27:53;22.20;67.70
22469;DHT22;11401;50.792;4.352;2023-07-29T03:30:20;22.20;68.10
22469;DHT22;11401;50.792;4.352;2023-07-29T03:32:49;22.30;68.00
22469;DHT22;11401;50.792;4.352;2023-07-29T03:35:16;22.20;68.00
22469;DHT22;11401;50.792;4.352;2023-07-29T03:37:44;22.20;68.10
22469;DHT22;11401;50.792;4.352;2023-07-29T03:40:11;22.30;68.10
22469;DHT22;11401;50.792;4.352;2023-07-29T03:42:38;22.20;67.80
22469;DHT22;11401;50.792;4.352;2023-07-29T03:45:05;22.20;68.20
22469;DHT22;11401;50.792;4.352;2023-07-29T03:47:32;22.20;68.20
22469;DHT22;11401;50.792;4.352;2023-07-29T03:50:00;22.20;68.00
22469;DHT22;11401;50.792;4.352;2023-07-29T03:52:27;22.20;68.10
22469;DHT22;11401;50.792;4.352;2023-07-29T03:54:54;22.20;68.10
22469;DHT22;11401;50.792;4.352;2023-07-29T03:57:21;22.20;67.80
22469;DHT22;11401;50.792;4.352;2023-07-29T03:59:48;22.20;68.00
22469;DHT22;11401;50.792;4.352;2023-07-29T04:02:15;22.20;68.10
22469;DHT22;11401;50.792;4.352;2023-07-29T04:04:43;22.20;68.10
22469;DHT22;11401;50.792;4.352;2023-07-29T04:07:14;22.10;68.00
22469;DHT22;11401;50.792;4.352;2023-07-29T04:09:41;22.20;68.20
22469;DHT22;11401;50.792;4.352;2023-07-29T04:12:10;22.20;68.20
22469;DHT22;11401;50.792;4.352;2023-07-29T04:14:38;22.20;67.90
22469;DHT22;11401;50.792;4.352;2023-07-29T04:17:05;22.20;67.70
22469;DHT22;11401;50.792;4.352;2023-07-29T04:19:32;22.20;67.80
22469;DHT22;11401;50.792;4.352;2023-07-29T04:22:00;22.20;68.10
22469;DHT22;11401;50.792;4.352;2023-07-29T04:24:27;22.10;67.90
22469;DHT22;11401;50.792;4.352;2023-07-29T04:26:54;22.20;68.00
22469;DHT22;11401;50.792;4.352;2023-07-29T04:29:21;22.20;68.20
22469;DHT22;11401;50.792;4.352;2023-07-29T04:31:50;22.20;68.00
22469;DHT22;11401;50.792;4.352;2023-07-29T04:34:20;22.20;67.90
22469;DHT22;11401;50.792;4.352;2023-07-29T04:36:48;22.20;68.00
22469;DHT22;11401;50.792;4.352;2023-07-29T04:39:15;22.20;67.90
22469;DHT22;11401;50.792;4.352;2023-07-29T04:41:43;22.20;67.90
22469;DHT22;11401;50.792;4.352;2023-07-29T04:44:10;22.20;67.60
22469;DHT22;11401;50.792;4.352;2023-07-29T04:46:37;22.20;67.80
22469;DHT22;11401;50.792;4.352;2023-07-29T04:49:05;22.20;67.80
22469;DHT22;11401;50.792;4.352;2023-07-29T04:51:32;22.20;67.90
22469;DHT22;11401;50.792;4.352;2023-07-29T04:54:00;22.20;67.80
22469;DHT22;11401;50.792;4.352;2023-07-29T04:56:27;22.20;67.90
22469;DHT22;11401;50.792;4.352;2023-07-29T04:58:54;22.20;67.90
22469;DHT22;11401;50.792;4.352;2023-07-29T05:01:21;22.20;67.90
22469;DHT22;11401;50.792;4.352;2023-07-29T05:03:48;22.20;67.90
22469;DHT22;11401;50.792;4.352;2023-07-29T05:06:15;22.20;67.90
22469;DHT22;11401;50.792;4.352;2023-07-29T05:08:42;22.20;67.60
22469;DHT22;11401;50.792;4.352;2023-07-29T05:11:10;22.10;67.60
22469;DHT22;11401;50.792;4.352;2023-07-29T05:13:37;22.20;67.40
22469;DHT22;11401;50.792;4.352;2023-07-29T05:16:04;22.10;67.70
22469;DHT22;11401;50.792;4.352;2023-07-29T05:18:32;22.10;67.80
22469;DHT22;11401;50.792;4.352;2023-07-29T05:20:59;22.10;67.80
22469;DHT22;11401;50.792;4.352;2023-07-29T05:23:27;22.10;67.90
22469;DHT22;11401;50.792;4.352;2023-07-29T05:25:54;22.10;67.90
22469;DHT22;11401;50.792;4.352;2023-07-29T05:28:22;22.10;68.10
22469;DHT22;11401;50.792;4.352;2023-07-29T05:30:49;22.20;68.20
22469;DHT22;11401;50.792;4.352;2023-07-29T05:33:16;22.20;67.80
22469;DHT22;11401;50.792;4.352;2023-07-29T05:35:43;22.20;67.10
22469;DHT22;11401;50.792;4.352;2023-07-29T05:38:12;22.20;68.00
22469;DHT22;11401;50.792;4.352;2023-07-29T05:40:39;22.20;68.40
22469;DHT22;11401;50.792;4.352;2023-07-29T05:43:06;22.20;67.80
22469;DHT22;11401;50.792;4.352;2023-07-29T05:45:34;22.20;67.70
22469;DHT22;11401;50.792;4.352;2023-07-29T05:48:01;22.10;67.30
22469;DHT22;11401;50.792;4.352;2023-07-29T05:50:28;22.20;67.90
22469;DHT22;11401;50.792;4.352;2023-07-29T05:52:55;22.20;67.60
22469;DHT22;11401;50.792;4.352;2023-07-29T05:55:22;22.20;67.60
22469;DHT22;11401;50.792;4.352;2023-07-29T05:57:49;22.30;67.60
22469;DHT22;11401;50.792;4.352;2023-07-29T06:00:16;22.30;67.40
22469;DHT22;11401;50.792;4.352;2023-07-29T06:02:44;22.40;67.50
22469;DHT22;11401;50.792;4.352;2023-07-29T06:05:15;22.40;67.80
22469;DHT22;11401;50.792;4.352;2023-07-29T06:07:42;22.50;67.70
22469;DHT22;11401;50.792;4.352;2023-07-29T06:10:13;22.60;68.30
22469;DHT22;11401;50.792;4.352;2023-07-29T06:12:41;22.60;67.80
22469;DHT22;11401;50.792;4.352;2023-07-29T06:15:08;22.70;68.50
22469;DHT22;11401;50.792;4.352;2023-07-29T06:17:35;22.70;67.80
22469;DHT22;11401;50.792;4.352;2023-07-29T06:20:03;22.70;67.40
22469;DHT22;11401;50.792;4.352;2023-07-29T06:22:30;22.70;67.80
22469;DHT22;11401;50.792;4.352;2023-07-29T06:24:57;22.70;67.10
22469;DHT22;11401;50.792;4.352;2023-07-29T06:27:25;22.70;66.90
22469;DHT22;11401;50.792;4.352;2023-07-29T06:29:52;22.70;67.00
22469;DHT22;11401;50.792;4.352;2023-07-29T06:32:19;22.80;66.80
22469;DHT22;11401;50.792;4.352;2023-07-29T06:34:46;22.80;67.10
22469;DHT22;11401;50.792;4.352;2023-07-29T06:37:13;22.80;67.10
22469;DHT22;11401;50.792;4.352;2023-07-29T06:39:40;22.80;66.30
22469;DHT22;11401;50.792;4.352;2023-07-29T06:42:07;22.80;66.30
22469;DHT22;11401;50.792;4.352;2023-07-29T06:44:34;22.80;66.60
22469;DHT22;11401;50.792;4.352;2023-07-29T06:47:01;22.80;66.50
22469;DHT22;11401;50.792;4.352;2023-07-29T06:49:29;22.80;66.50
22469;DHT22;11401;50.792;4.352;2023-07-29T06:51:56;22.80;66.70
22469;DHT22;11401;50.792;4.352;2023-07-29T06:54:26;22.80;67.10
22469;DHT22;11401;50.792;4.352;2023-07-29T06:56:53;22.80;67.10
22469;DHT22;11401;50.792;4.352;2023-07-29T06:59:20;22.90;67.40
22469;DHT22;11401;50.792;4.352;2023-07-29T07:01:47;22.90;67.40
22469;DHT22;11401;50.792;4.352;2023-07-29T07:04:14;23.00;67.30
22469;DHT22;11401;50.792;4.352;2023-07-29T07:06:41;23.00;66.80
22469;DHT22;11401;50.792;4.352;2023-07-29T07:09:08;23.00;67.20
22469;DHT22;11401;50.792;4.352;2023-07-29T07:11:35;23.00;67.00
22469;DHT22;11401;50.792;4.352;2023-07-29T07:14:02;23.00;66.90
22469;DHT22;11401;50.792;4.352;2023-07-29T07:16:29;23.00;66.80
22469;DHT22;11401;50.792;4.352;2023-07-29T07:18:57;23.00;67.20
22469;DHT22;11401;50.792;4.352;2023-07-29T07:21:24;23.10;67.00
22469;DHT22;11401;50.792;4.352;2023-07-29T07:23:51;23.10;67.00
22469;DHT22;11401;50.792;4.352;2023-07-29T07:26:18;23.10;67.40
22469;DHT22;11401;50.792;4.352;2023-07-29T07:28:45;23.10;67.00
22469;DHT22;11401;50.792;4.352;2023-07-29T07:31:12;23.10;67.10
22469;DHT22;11401;50.792;4.352;2023-07-29T07:33:39;23.20;67.00
22469;DHT22;11401;50.792;4.352;2023-07-29T07:36:06;23.10;66.70
22469;DHT22;11401;50.792;4.352;2023-07-29T07:38:34;23.10;66.90
22469;DHT22;11401;50.792;4.352;2023-07-29T07:41:01;23.10;66.60
22469;DHT22;11401;50.792;4.352;2023-07-29T07:43:28;23.10;66.70
22469;DHT22;11401;50.792;4.352;2023-07-29T07:46:00;23.10;66.60
22469;DHT22;11401;50.792;4.352;2023-07-29T07:48:28;23.10;66.60
22469;DHT22;11401;50.792;4.352;2023-07-29T07:50:55;23.10;66.50
22469;DHT22;11401;50.792;4.352;2023-07-29T07:53:22;23.10;66.50
22469;DHT22;11401;50.792;4.352;2023-07-29T07:55:49;23.10;66.90
22469;DHT22;11401;50.792;4.352;2023-07-29T07:58:16;23.10;66.70
22469;DHT22;11401;50.792;4.352;2023-07-29T08:00:43;23.10;66.20
22469;DHT22;11401;50.792;4.352;2023-07-29T08:03:10;23.10;66.10
22469;DHT22;11401;50.792;4.352;2023-07-29T08:05:37;23.00;66.00
22469;DHT22;11401;50.792;4.352;2023-07-29T08:08:04;23.00;66.40
22469;DHT22;11401;50.792;4.352;2023-07-29T08:10:31;22.90;66.30
22469;DHT22;11401;50.792;4.352;2023-07-29T08:12:59;22.90;66.30
22469;DHT22;11401;50.792;4.352;2023-07-29T08:15:26;23.00;66.80
22469;DHT22;11401;50.792;4.352;2023-07-29T08:17:53;23.10;67.00
22469;DHT22;11401;50.792;4.352;2023-07-29T08:20:21;23.10;66.50
22469;DHT22;11401;50.792;4.352;2023-07-29T08:22:48;23.10;67.10
22469;DHT22;11401;50.792;4.352;2023-07-29T08:25:15;23.10;67.30
22469;DHT22;11401;50.792;4.352;2023-07-29T08:27:42;23.20;67.40
22469;DHT22;11401;50.792;4.352;2023-07-29T08:30:10;23.20;67.50
22469;DHT22;11401;50.792;4.352;2023-07-29T08:32:37;23.20;66.90
22469;DHT22;11401;50.792;4.352;2023-07-29T08:35:05;23.20;67.30
22469;DHT22;11401;50.792;4.352;2023-07-29T08:37:32;23.20;66.60
22469;DHT22;11401;50.792;4.352;2023-07-29T08:39:59;23.30;67.00
22469;DHT22;11401;50.792;4.352;2023-07-29T08:42:29;23.40;68.20
22469;DHT22;11401;50.792;4.352;2023-07-29T08:45:05;23.40;68.20
22469;DHT22;11401;50.792;4.352;2023-07-29T08:47:33;23.40;66.80
22469;DHT22;11401;50.792;4.352;2023-07-29T08:50:01;23.30;66.80
22469;DHT22;11401;50.792;4.352;2023-07-29T08:52:30;23.40;66.30
22469;DHT22;11401;50.792;4.352;2023-07-29T08:54:59;23.40;66.60
22469;DHT22;11401;50.792;4.352;2023-07-29T08:57:26;23.40;65.40
22469;DHT22;11401;50.792;4.352;2023-07-29T08:59:55;23.40;65.00
22469;DHT22;11401;50.792;4.352;2023-07-29T09:02:22;23.40;64.20
22469;DHT22;11401;50.792;4.352;2023-07-29T09:04:49;23.40;64.00
22469;DHT22;11401;50.792;4.352;2023-07-29T09:07:16;23.40;64.30
22469;DHT22;11401;50.792;4.352;2023-07-29T09:09:43;23.40;65.70
22469;DHT22;11401;50.792;4.352;2023-07-29T09:12:10;23.50;66.30
22469;DHT22;11401;50.792;4.352;2023-07-29T09:14:40;23.60;66.10
22469;DHT22;11401;50.792;4.352;2023-07-29T09:17:08;23.60;65.40
22469;DHT22;11401;50.792;4.352;2023-07-29T09:19:35;23.60;67.00
22469;DHT22;11401;50.792;4.352;2023-07-29T09:22:03;23.70;67.20
22469;DHT22;11401;50.792;4.352;2023-07-29T09:24:30;23.60;65.10
22469;DHT22;11401;50.792;4.352;2023-07-29T09:26:59;23.70;66.30
22469;DHT22;11401;50.792;4.352;2023-07-29T09:29:28;23.80;67.60
22469;DHT22;11401;50.792;4.352;2023-07-29T09:32:21;23.80;67.10
22469;DHT22;11401;50.792;4.352;2023-07-29T09:34:49;23.90;67.20
22469;DHT22;11401;50.792;4.352;2023-07-29T09:37:23;23.80;66.40
22469;DHT22;11401;50.792;4.352;2023-07-29T10:11:02;23.80;67.60
22469;DHT22;11401;50.792;4.352;2023-07-29T10:13:29;23.70;67.10
22469;DHT22;11401;50.792;4.352;2023-07-29T10:15:57;23.70;66.10
22469;DHT22;11401;50.792;4.352;2023-07-29T10:18:24;23.80;67.40
22469;DHT22;11401;50.792;4.352;2023-07-29T10:20:52;23.80;67.50
22469;DHT22;11401;50.792;4.352;2023-07-29T10:23:22;23.90;67.50
22469;DHT22;11401;50.792;4.352;2023-07-29T10:26:06;24.00;67.40
22469;DHT22;11401;50.792;4.352;2023-07-29T10:28:40;24.00;67.20
22469;DHT22;11401;50.792;4.352;2023-07-29T10:31:08;23.90;67.40
22469;DHT22;11401;50.792;4.352;2023-07-29T10:33:36;23.90;67.70
22469;DHT22;11401;50.792;4.352;2023-07-29T10:36:05;23.90;67.70
22469;DHT22;11401;50.792;4.352;2023-07-29T10:38:32;24.00;68.60
22469;DHT22;11401;50.792;4.352;2023-07-29T10:40:59;24.00;69.40
22469;DHT22;11401;50.792;4.352;2023-07-29T10:43:34;23.90;70.20
22469;DHT22;11401;50.792;4.352;2023-07-29T10:46:18;24.00;69.40
22469;DHT22;11401;50.792;4.352;2023-07-29T10:48:54;24.00;68.50
22469;DHT22;11401;50.792;4.352;2023-07-29T10:51:28;23.90;68.80
22469;DHT22;11401;50.792;4.352;2023-07-29T10:54:10;23.90;69.00
22469;DHT22;11401;50.792;4.352;2023-07-29T10:56:40;24.00;68.80
22469;DHT22;11401;50.792;4.352;2023-07-29T11:02:00;24.00;68.50
22469;DHT22;11401;50.792;4.352;2023-07-29T11:04:29;24.00;68.70
22469;DHT22;11401;50.792;4.352;2023-07-29T11:09:53;24.00;69.90
22469;DHT22;11401;50.792;4.352;2023-07-29T11:12:46;23.90;70.10
22469;DHT22;11401;50.792;4.352;2023-07-29T11:15:24;23.80;69.80
22469;DHT22;11401;50.792;4.352;2023-07-29T11:18:01;23.90;69.90
22469;DHT22;11401;50.792;4.352;2023-07-29T11:20:31;23.90;69.60
22469;DHT22;11401;50.792;4.352;2023-07-29T11:23:00;23.90;69.50
22469;DHT22;11401;50.792;4.352;2023-07-29T11:25:29;24.00;69.30
22469;DHT22;11401;50.792;4.352;2023-07-29T11:27:58;24.00;69.20
22469;DHT22;11401;50.792;4.352;2023-07-29T11:30:27;23.90;69.10
22469;DHT22;11401;50.792;4.352;2023-07-29T11:32:57;24.00;69.10
22469;DHT22;11401;50.792;4.352;2023-07-29T11:35:24;24.00;68.80
22469;DHT22;11401;50.792;4.352;2023-07-29T11:37:53;24.10;68.70
22469;DHT22;11401;50.792;4.352;2023-07-29T11:40:21;24.10;68.70
22469;DHT22;11401;50.792;4.352;2023-07-29T11:42:50;24.10;68.80
22469;DHT22;11401;50.792;4.352;2023-07-29T11:45:19;24.10;69.00
22469;DHT22;11401;50.792;4.352;2023-07-29T11:47:46;24.00;69.30
22469;DHT22;11401;50.792;4.352;2023-07-29T11:50:14;24.00;69.30
22469;DHT22;11401;50.792;4.352;2023-07-29T11:52:46;23.90;69.30
22469;DHT22;11401;50.792;4.352;2023-07-29T11:55:14;24.00;69.20
22469;DHT22;11401;50.792;4.352;2023-07-29T11:57:43;24.00;69.90
22469;DHT22;11401;50.792;4.352;2023-07-29T12:00:11;24.00;68.90
22469;DHT22;11401;50.792;4.352;2023-07-29T12:02:41;24.00;68.90
22469;DHT22;11401;50.792;4.352;2023-07-29T12:05:09;24.00;68.80
22469;DHT22;11401;50.792;4.352;2023-07-29T12:07:40;24.00;68.80
22469;DHT22;11401;50.792;4.352;2023-07-29T12:10:09;23.90;68.90
22469;DHT22;11401;50.792;4.352;2023-07-29T12:12:55;23.80;68.80
22469;DHT22;11401;50.792;4.352;2023-07-29T12:15:26;23.80;69.00
22469;DHT22;11401;50.792;4.352;2023-07-29T12:17:58;23.90;69.30
22469;DHT22;11401;50.792;4.352;2023-07-29T12:20:26;24.00;69.10
22469;DHT22;11401;50.792;4.352;2023-07-29T12:22:55;24.00;70.30
22469;DHT22;11401;50.792;4.352;2023-07-29T12:25:23;24.00;70.00
22469;DHT22;11401;50.792;4.352;2023-07-29T12:27:50;23.90;69.90
22469;DHT22;11401;50.792;4.352;2023-07-29T12:30:23;23.90;70.00
22469;DHT22;11401;50.792;4.352;2023-07-29T12:32:52;23.80;70.10
22469;DHT22;11401;50.792;4.352;2023-07-29T12:35:19;23.70;70.50
22469;DHT22;11401;50.792;4.352;2023-07-29T12:37:46;23.80;70.40
22469;DHT22;11401;50.792;4.352;2023-07-29T12:40:24;23.80;70.50
22469;DHT22;11401;50.792;4.352;2023-07-29T12:42:53;23.90;70.60
22469;DHT22;11401;50.792;4.352;2023-07-29T12:45:20;23.90;70.30
22469;DHT22;11401;50.792;4.352;2023-07-29T12:47:49;24.00;70.30
22469;DHT22;11401;50.792;4.352;2023-07-29T12:50:17;24.00;70.00
22469;DHT22;11401;50.792;4.352;2023-07-29T12:52:44;23.90;69.90
22469;DHT22;11401;50.792;4.352;2023-07-29T12:55:11;23.90;70.80
22469;DHT22;11401;50.792;4.352;2023-07-29T12:57:42;23.90;70.70
22469;DHT22;11401;50.792;4.352;2023-07-29T13:00:10;24.00;70.30
22469;DHT22;11401;50.792;4.352;2023-07-29T13:02:38;24.00;70.20
22469;DHT22;11401;50.792;4.352;2023-07-29T13:05:05;24.00;70.00
22469;DHT22;11401;50.792;4.352;2023-07-29T13:07:33;24.00;70.20
22469;DHT22;11401;50.792;4.352;2023-07-29T13:10:00;24.00;70.40
22469;DHT22;11401;50.792;4.352;2023-07-29T13:12:27;23.90;70.00
22469;DHT22;11401;50.792;4.352;2023-07-29T13:14:54;23.90;70.50
22469;DHT22;11401;50.792;4.352;2023-07-29T13:17:22;23.80;70.00
22469;DHT22;11401;50.792;4.352;2023-07-29T13:19:49;23.90;69.30
22469;DHT22;11401;50.792;4.352;2023-07-29T13:22:17;24.00;69.20
22469;DHT22;11401;50.792;4.352;2023-07-29T13:24:44;24.00;69.40
22469;DHT22;11401;50.792;4.352;2023-07-29T13:27:12;23.90;69.90
22469;DHT22;11401;50.792;4.352;2023-07-29T13:29:40;23.90;69.60
22469;DHT22;11401;50.792;4.352;2023-07-29T13:32:08;24.00;69.70
22469;DHT22;11401;50.792;4.352;2023-07-29T13:34:35;23.90;70.10
22469;DHT22;11401;50.792;4.352;2023-07-29T13:37:02;24.00;69.50
22469;DHT22;11401;50.792;4.352;2023-07-29T13:39:29;23.90;69.30
22469;DHT22;11401;50.792;4.352;2023-07-29T13:41:56;23.80;69.70
22469;DHT22;11401;50.792;4.352;2023-07-29T13:44:24;23.80;69.80
22469;DHT22;11401;50.792;4.352;2023-07-29T13:46:51;23.90;69.70
22469;DHT22;11401;50.792;4.352;2023-07-29T13:49:18;23.80;69.70
22469;DHT22;11401;50.792;4.352;2023-07-29T13:51:45;23.70;69.50
22469;DHT22;11401;50.792;4.352;2023-07-29T13:54:12;23.60;70.00
22469;DHT22;11401;50.792;4.352;2023-07-29T13:56:39;23.70;70.20
22469;DHT22;11401;50.792;4.352;2023-07-29T13:59:06;23.70;70.30
22469;DHT22;11401;50.792;4.352;2023-07-29T14:01:33;23.80;69.40
22469;DHT22;11401;50.792;4.352;2023-07-29T14:04:00;23.90;68.80
22469;DHT22;11401;50.792;4.352;2023-07-29T14:06:27;24.00;68.50
22469;DHT22;11401;50.792;4.352;2023-07-29T14:09:11;24.00;68.40
22469;DHT22;11401;50.792;4.352;2023-07-29T14:11:39;23.90;68.50
22469;DHT22;11401;50.792;4.352;2023-07-29T14:14:06;23.90;68.40
22469;DHT22;11401;50.792;4.352;2023-07-29T14:16:33;23.90;68.60
22469;DHT22;11401;50.792;4.352;2023-07-29T14:19:01;23.90;68.70
22469;DHT22;11401;50.792;4.352;2023-07-29T14:21:28;23.90;68.80
22469;DHT22;11401;50.792;4.352;2023-07-29T14:23:55;23.80;69.00
22469;DHT22;11401;50.792;4.352;2023-07-29T14:26:22;23.90;69.00
22469;DHT22;11401;50.792;4.352;2023-07-29T14:28:49;23.80;69.10
22469;DHT22;11401;50.792;4.352;2023-07-29T14:31:16;23.90;68.90
22469;DHT22;11401;50.792;4.352;2023-07-29T14:33:44;23.90;68.70
22469;DHT22;11401;50.792;4.352;2023-07-29T14:36:11;23.90;68.60
22469;DHT22;11401;50.792;4.352;2023-07-29T14:38:38;24.00;68.40
22469;DHT22;11401;50.792;4.352;2023-07-29T14:41:05;24.00;68.60
22469;DHT22;11401;50.792;4.352;2023-07-29T14:43:34;23.80;68.60
22469;DHT22;11401;50.792;4.352;2023-07-29T14:46:02;23.80;68.90
22469;DHT22;11401;50.792;4.352;2023-07-29T14:48:29;23.80;69.20
22469;DHT22;11401;50.792;4.352;2023-07-29T14:50:56;23.70;69.20
22469;DHT22;11401;50.792;4.352;2023-07-29T14:53:23;23.60;69.20
22469;DHT22;11401;50.792;4.352;2023-07-29T14:55:51;23.60;68.80
22469;DHT22;11401;50.792;4.352;2023-07-29T14:58:18;23.60;69.40
22469;DHT22;11401;50.792;4.352;2023-07-29T15:00:45;23.70;69.70
22469;DHT22;11401;50.792;4.352;2023-07-29T15:03:12;23.70;69.70
22469;DHT22;11401;50.792;4.352;2023-07-29T15:05:39;23.70;69.40
22469;DHT22;11401;50.792;4.352;2023-07-29T15:08:07;23.80;69.40
22469;DHT22;11401;50.792;4.352;2023-07-29T15:10:34;23.90;69.20
22469;DHT22;11401;50.792;4.352;2023-07-29T15:13:02;24.00;69.30
22469;DHT22;11401;50.792;4.352;2023-07-29T15:15:29;24.00;69.00
22469;DHT22;11401;50.792;4.352;2023-07-29T15:17:56;24.00;68.80
22469;DHT22;11401;50.792;4.352;2023-07-29T15:20:24;24.00;69.30
22469;DHT22;11401;50.792;4.352;2023-07-29T15:22:51;24.00;68.60
22469;DHT22;11401;50.792;4.352;2023-07-29T15:25:18;23.80;69.00
22469;DHT22;11401;50.792;4.352;2023-07-29T15:27:45;23.70;69.00
22469;DHT22;11401;50.792;4.352;2023-07-29T15:30:13;23.70;69.30
22469;DHT22;11401;50.792;4.352;2023-07-29T15:32:40;23.70;69.00
22469;DHT22;11401;50.792;4.352;2023-07-29T15:35:09;23.80;69.10
22469;DHT22;11401;50.792;4.352;2023-07-29T15:37:36;23.90;68.90
22469;DHT22;11401;50.792;4.352;2023-07-29T15:40:03;23.90;68.80
22469;DHT22;11401;50.792;4.352;2023-07-29T15:42:31;23.90;68.80
22469;DHT22;11401;50.792;4.352;2023-07-29T15:44:58;24.00;68.70
22469;DHT22;11401;50.792;4.352;2023-07-29T15:47:25;24.00;68.40
22469;DHT22;11401;50.792;4.352;2023-07-29T15:49:52;24.00;68.50
22469;DHT22;11401;50.792;4.352;2023-07-29T15:52:19;23.90;68.50
22469;DHT22;11401;50.792;4.352;2023-07-29T15:54:46;24.00;68.40
22469;DHT22;11401;50.792;4.352;2023-07-29T15:57:14;23.90;68.40
22469;DHT22;11401;50.792;4.352;2023-07-29T15:59:41;24.00;68.10
22469;DHT22;11401;50.792;4.352;2023-07-29T16:02:08;24.00;68.30
22469;DHT22;11401;50.792;4.352;2023-07-29T16:04:35;24.10;68.10
22469;DHT22;11401;50.792;4.352;2023-07-29T16:07:02;24.10;67.70
22469;DHT22;11401;50.792;4.352;2023-07-29T16:09:30;24.20;68.10
22469;DHT22;11401;50.792;4.352;2023-07-29T16:11:57;24.10;68.00
22469;DHT22;11401;50.792;4.352;2023-07-29T16:14:24;24.10;68.10
22469;DHT22;11401;50.792;4.352;2023-07-29T16:16:51;24.00;68.00
22469;DHT22;11401;50.792;4.352;2023-07-29T16:19:24;24.00;68.20